sensor_id;sensor_type;location;lat;lon;timestamp;pressure;altitude;pressure_sealevel;temperature;humidity
51986;BME280;38002;53.296;6.600;2023-02-04T00:02:04;103330.66;;;6.73;87.45
51986;BME280;38002;53.296;6.600;2023-02-04T00:07:04;103326.16;;;6.74;87.12
51986;BME280;38002;53.296;6.600;2023-02-04T00:12:05;103319.97;;;6.72;86.78
51986;BME280;38002;53.296;6.600;2023-02-04T00:17:05;103330.06;;;6.68;87.37
51986;BME280;38002;53.296;6.600;2023-02-04T00:22:08;103342.69;;;6.68;86.99
51986;BME280;38002;53.296;6.600;2023-02-04T00:27:09;103350.94;;;6.65;88.34
51986;BME280;38002;53.296;6.600;2023-02-04T00:32:09;103356.44;;;6.63;87.84
51986;BME280;38002;53.296;6.600;2023-02-04T00:37:10;103364.66;;;6.60;87.72
51986;BME280;38002;53.296;6.600;2023-02-04T00:42:10;103383.53;;;6.62;87.75
51986;BME280;38002;53.296;6.600;2023-02-04T00:47:11;103387.13;;;6.62;87.52
51986;BME280;38002;53.296;6.600;2023-02-04T00:52:11;103392.47;;;6.64;87.52
51986;BME280;38002;53.296;6.600;2023-02-04T00:57:12;103388.78;;;6.65;87.86
51986;BME280;38002;53.296;6.600;2023-02-04T01:02:12;103393.25;;;6.66;88.07
51986;BME280;38002;53.296;6.600;2023-02-04T01:07:13;103390.53;;;6.66;88.18
51986;BME280;38002;53.296;6.600;2023-02-04T01:12:13;103412.16;;;6.66;88.18
51986;BME280;38002;53.296;6.600;2023-02-04T01:17:14;103414.00;;;6.65;88.21
51986;BME280;38002;53.296;6.600;2023-02-04T01:22:14;103412.25;;;6.64;87.85
51986;BME280;38002;53.296;6.600;2023-02-04T01:27:15;103418.63;;;6.63;88.49
51986;BME280;38002;53.296;6.600;2023-02-04T01:32:15;103419.56;;;6.62;88.07
51986;BME280;38002;53.296;6.600;2023-02-04T01:37:15;103430.31;;;6.64;88.95
51986;BME280;38002;53.296;6.600;2023-02-04T01:42:17;103441.13;;;6.64;88.38
51986;BME280;38002;53.296;6.600;2023-02-04T01:47:17;103448.34;;;6.63;88.65
51986;BME280;38002;53.296;6.600;2023-02-04T01:52:19;103453.75;;;6.63;88.36
51986;BME280;38002;53.296;6.600;2023-02-04T01:57:19;103468.16;;;6.64;88.83
51986;BME280;38002;53.296;6.600;2023-02-04T02:07:40;103474.44;;;6.64;88.53
51986;BME280;38002;53.296;6.600;2023-02-04T02:12:41;103478.00;;;6.65;88.90
51986;BME280;38002;53.296;6.600;2023-02-04T02:17:42;103481.69;;;6.64;89.08
51986;BME280;38002;53.296;6.600;2023-02-04T02:28:17;103496.13;;;6.63;89.34
51986;BME280;38002;53.296;6.600;2023-02-04T02:33:19;103501.53;;;6.63;89.33
51986;BME280;38002;53.296;6.600;2023-02-04T02:38:20;103500.66;;;6.62;89.64
51986;BME280;38002;53.296;6.600;2023-02-04T02:43:22;103492.75;;;6.58;89.41
51986;BME280;38002;53.296;6.600;2023-02-04T02:48:24;103498.22;;;6.56;90.00
51986;BME280;38002;53.296;6.600;2023-02-04T02:53:24;103511.97;;;6.52;89.14
51986;BME280;38002;53.296;6.600;2023-02-04T02:58:29;103522.91;;;6.49;89.51
51986;BME280;38002;53.296;6.600;2023-02-04T03:03:46;103524.91;;;6.45;89.25
51986;BME280;38002;53.296;6.600;2023-02-04T03:08:50;103526.88;;;6.42;89.45
51986;BME280;38002;53.296;6.600;2023-02-04T03:13:55;103535.09;;;6.38;89.18
51986;BME280;38002;53.296;6.600;2023-02-04T03:18:58;103542.56;;;6.33;89.27
51986;BME280;38002;53.296;6.600;2023-02-04T03:23:58;103545.53;;;6.27;89.10
51986;BME280;38002;53.296;6.600;2023-02-04T03:28:59;103546.59;;;6.23;89.24
51986;BME280;38002;53.296;6.600;2023-02-04T03:33:59;103545.94;;;6.18;89.30
51986;BME280;38002;53.296;6.600;2023-02-04T03:39:00;103565.88;;;6.16;89.25
51986;BME280;38002;53.296;6.600;2023-02-04T03:44:01;103565.97;;;6.13;89.07
51986;BME280;38002;53.296;6.600;2023-02-04T03:49:01;103572.41;;;6.10;89.38
51986;BME280;38002;53.296;6.600;2023-02-04T03:54:02;103584.34;;;6.05;89.16
51986;BME280;38002;53.296;6.600;2023-02-04T03:59:03;103579.97;;;6.02;89.66
51986;BME280;38002;53.296;6.600;2023-02-04T04:04:03;103588.22;;;5.99;89.30
51986;BME280;38002;53.296;6.600;2023-02-04T04:09:04;103592.91;;;5.94;89.37
51986;BME280;38002;53.296;6.600;2023-02-04T04:14:04;103596.69;;;5.90;89.29
51986;BME280;38002;53.296;6.600;2023-02-04T04:19:04;103612.06;;;5.88;89.42
51986;BME280;38002;53.296;6.600;2023-02-04T04:24:05;103631.97;;;5.85;88.99
51986;BME280;38002;53.296;6.600;2023-02-04T04:29:05;103641.88;;;5.85;89.34
51986;BME280;38002;53.296;6.600;2023-02-04T04:34:06;103645.47;;;5.85;89.36
51986;BME280;38002;53.296;6.600;2023-02-04T04:39:06;103657.25;;;5.83;89.54
51986;BME280;38002;53.296;6.600;2023-02-04T04:44:07;103660.97;;;5.80;89.29
51986;BME280;38002;53.296;6.600;2023-02-04T04:49:07;103665.47;;;5.80;89.70
51986;BME280;38002;53.296;6.600;2023-02-04T04:54:08;103670.00;;;5.79;89.52
51986;BME280;38002;53.296;6.600;2023-02-04T04:59:08;103681.72;;;5.78;89.46
51986;BME280;38002;53.296;6.600;2023-02-04T05:04:09;103687.22;;;5.77;89.44
51986;BME280;38002;53.296;6.600;2023-02-04T05:09:09;103681.91;;;5.74;89.63
51986;BME280;38002;53.296;6.600;2023-02-04T05:14:10;103688.34;;;5.71;89.59
51986;BME280;38002;53.296;6.600;2023-02-04T05:19:10;103685.81;;;5.67;89.68
51986;BME280;38002;53.296;6.600;2023-02-04T05:24:11;103702.94;;;5.66;89.45
51986;BME280;38002;53.296;6.600;2023-02-04T05:29:11;103703.06;;;5.63;90.04
51986;BME280;38002;53.296;6.600;2023-02-04T05:34:11;103711.31;;;5.60;89.50
51986;BME280;38002;53.296;6.600;2023-02-04T05:39:12;103706.84;;;5.59;89.56
51986;BME280;38002;53.296;6.600;2023-02-04T05:44:12;103709.59;;;5.57;89.57
51986;BME280;38002;53.296;6.600;2023-02-04T05:49:13;103724.09;;;5.55;89.67
51986;BME280;38002;53.296;6.600;2023-02-04T05:54:13;103726.91;;;5.52;89.50
51986;BME280;38002;53.296;6.600;2023-02-04T05:59:18;103736.88;;;5.49;89.63
51986;BME280;38002;53.296;6.600;2023-02-04T06:04:18;103738.78;;;5.47;89.85
51986;BME280;38002;53.296;6.600;2023-02-04T06:09:19;103746.97;;;5.44;89.36
51986;BME280;38002;53.296;6.600;2023-02-04T06:14:19;103750.69;;;5.42;90.08
51986;BME280;38002;53.296;6.600;2023-02-04T06:19:20;103756.19;;;5.39;89.99
51986;BME280;38002;53.296;6.600;2023-02-04T06:24:20;103775.13;;;5.37;89.73
51986;BME280;38002;53.296;6.600;2023-02-04T06:29:21;103779.63;;;5.37;90.25
51986;BME280;38002;53.296;6.600;2023-02-04T06:34:21;103778.88;;;5.33;90.07
51986;BME280;38002;53.296;6.600;2023-02-04T06:39:22;103774.47;;;5.31;90.02
51986;BME280;38002;53.296;6.600;2023-02-04T06:44:22;103789.78;;;5.30;90.08
51986;BME280;38002;53.296;6.600;2023-02-04T06:49:22;103788.97;;;5.28;90.14
51986;BME280;38002;53.296;6.600;2023-02-04T06:54:26;103799.91;;;5.24;89.66
51986;BME280;38002;53.296;6.600;2023-02-04T06:59:26;103811.72;;;5.21;90.23
51986;BME280;38002;53.296;6.600;2023-02-04T07:04:32;103813.56;;;5.19;90.20
51986;BME280;38002;53.296;6.600;2023-02-04T07:09:32;103822.69;;;5.15;89.98
51986;BME280;38002;53.296;6.600;2023-02-04T07:14:33;103831.00;;;5.09;90.18
51986;BME280;38002;53.296;6.600;2023-02-04T07:19:33;103835.78;;;5.01;90.21
51986;BME280;38002;53.296;6.600;2023-02-04T07:24:35;103850.53;;;4.91;89.73
51986;BME280;38002;53.296;6.600;2023-02-04T07:29:35;103855.25;;;4.84;90.68
51986;BME280;38002;53.296;6.600;2023-02-04T07:34:36;103862.59;;;4.79;90.38
51986;BME280;38002;53.296;6.600;2023-02-04T07:39:36;103868.88;;;4.80;90.38
51986;BME280;38002;53.296;6.600;2023-02-04T07:44:37;103877.81;;;4.82;90.50
51986;BME280;38002;53.296;6.600;2023-02-04T07:49:37;103885.06;;;4.80;90.38
51986;BME280;38002;53.296;6.600;2023-02-04T07:54:38;103890.41;;;4.81;90.88
51986;BME280;38002;53.296;6.600;2023-02-04T07:59:38;103880.63;;;4.79;90.26
51986;BME280;38002;53.296;6.600;2023-02-04T08:04:39;103888.75;;;4.77;90.56
51986;BME280;38002;53.296;6.600;2023-02-04T08:09:39;103901.38;;;4.75;90.76
51986;BME280;38002;53.296;6.600;2023-02-04T08:14:40;103898.78;;;4.72;90.17
51986;BME280;38002;53.296;6.600;2023-02-04T08:19:40;103902.41;;;4.71;90.55
51986;BME280;38002;53.296;6.600;2023-02-04T08:24:40;103905.84;;;4.76;90.53
51986;BME280;38002;53.296;6.600;2023-02-04T08:29:41;103906.63;;;4.80;90.03
51986;BME280;38002;53.296;6.600;2023-02-04T08:34:41;103914.56;;;4.84;90.03
51986;BME280;38002;53.296;6.600;2023-02-04T08:39:43;103911.94;;;4.83;90.40
51986;BME280;38002;53.296;6.600;2023-02-04T08:44:45;103924.38;;;4.87;90.42
51986;BME280;38002;53.296;6.600;2023-02-04T08:49:46;103925.16;;;4.90;90.51
51986;BME280;38002;53.296;6.600;2023-02-04T08:54:46;103939.38;;;4.95;90.37
51986;BME280;38002;53.296;6.600;2023-02-04T08:59:46;103933.72;;;5.03;89.93
51986;BME280;38002;53.296;6.600;2023-02-04T09:04:47;103933.41;;;5.12;90.31
51986;BME280;38002;53.296;6.600;2023-02-04T09:09:47;103943.03;;;5.19;89.69
51986;BME280;38002;53.296;6.600;2023-02-04T09:14:48;103962.69;;;5.23;89.27
51986;BME280;38002;53.296;6.600;2023-02-04T09:19:48;103963.44;;;5.28;89.92
51986;BME280;38002;53.296;6.600;2023-02-04T09:24:49;103970.34;;;5.36;89.50
51986;BME280;38002;53.296;6.600;2023-02-04T09:29:49;103974.59;;;5.43;89.69
51986;BME280;38002;53.296;6.600;2023-02-04T09:34:50;103973.41;;;5.52;89.43
51986;BME280;38002;53.296;6.600;2023-02-04T09:39:50;103980.50;;;5.55;88.96
51986;BME280;38002;53.296;6.600;2023-02-04T09:44:51;103985.78;;;5.58;89.09
51986;BME280;38002;53.296;6.600;2023-02-04T09:49:53;103984.66;;;5.65;89.18
51986;BME280;38002;53.296;6.600;2023-02-04T09:54:53;103991.47;;;5.75;88.80
51986;BME280;38002;53.296;6.600;2023-02-04T09:59:54;104003.84;;;5.82;88.75
51986;BME280;38002;53.296;6.600;2023-02-04T10:04:56;104008.94;;;5.91;88.61
51986;BME280;38002;53.296;6.600;2023-02-04T10:09:57;104014.16;;;5.96;88.39
51986;BME280;38002;53.296;6.600;2023-02-04T10:14:57;104013.91;;;6.03;88.16
51986;BME280;38002;53.296;6.600;2023-02-04T10:19:59;104014.41;;;6.13;87.34
51986;BME280;38002;53.296;6.600;2023-02-04T10:25:00;104015.09;;;6.19;87.76
51986;BME280;38002;53.296;6.600;2023-02-04T10:30:00;104020.00;;;6.33;88.59
51986;BME280;38002;53.296;6.600;2023-02-04T10:35:02;104015.88;;;6.46;88.26
51986;BME280;38002;53.296;6.600;2023-02-04T10:40:03;104017.94;;;6.63;88.00
51986;BME280;38002;53.296;6.600;2023-02-04T10:45:03;104018.91;;;6.83;88.10
51986;BME280;38002;53.296;6.600;2023-02-04T10:50:14;104018.00;;;7.06;87.41
51986;BME280;38002;53.296;6.600;2023-02-04T10:55:18;104027.63;;;7.35;86.49
51986;BME280;38002;53.296;6.600;2023-02-04T11:00:24;104012.25;;;7.57;85.86
51986;BME280;38002;53.296;6.600;2023-02-04T11:05:30;104018.16;;;7.67;85.80
51986;BME280;38002;53.296;6.600;2023-02-04T11:10:32;104007.72;;;7.58;85.17
51986;BME280;38002;53.296;6.600;2023-02-04T11:16:06;104006.00;;;7.55;85.82
51986;BME280;38002;53.296;6.600;2023-02-04T11:21:13;104008.78;;;7.54;84.58
51986;BME280;38002;53.296;6.600;2023-02-04T11:26:17;104009.69;;;7.54;85.01
51986;BME280;38002;53.296;6.600;2023-02-04T11:36:20;104014.63;;;7.65;84.33
51986;BME280;38002;53.296;6.600;2023-02-04T11:41:27;104013.69;;;7.86;84.58
51986;BME280;38002;53.296;6.600;2023-02-04T11:46:28;104015.44;;;8.28;84.70
51986;BME280;38002;53.296;6.600;2023-02-04T11:51:31;104005.22;;;8.90;82.45
51986;BME280;38002;53.296;6.600;2023-02-04T11:56:32;104015.47;;;9.57;83.47
51986;BME280;38002;53.296;6.600;2023-02-04T12:01:33;104005.84;;;10.19;82.18
51986;BME280;38002;53.296;6.600;2023-02-04T12:06:35;104012.13;;;10.69;81.53
51986;BME280;38002;53.296;6.600;2023-02-04T12:11:36;103999.56;;;11.14;80.67
51986;BME280;38002;53.296;6.600;2023-02-04T12:16:54;103992.81;;;11.21;76.15
51986;BME280;38002;53.296;6.600;2023-02-04T12:21:55;103993.00;;;11.48;79.58
51986;BME280;38002;53.296;6.600;2023-02-04T12:26:56;103990.94;;;11.67;76.65
51986;BME280;38002;53.296;6.600;2023-02-04T12:31:56;103987.06;;;11.71;78.01
51986;BME280;38002;53.296;6.600;2023-02-04T12:36:56;103988.03;;;11.86;78.08
51986;BME280;38002;53.296;6.600;2023-02-04T12:41:57;103988.50;;;11.92;77.11
51986;BME280;38002;53.296;6.600;2023-02-04T12:46:58;103989.59;;;12.04;77.52
51986;BME280;38002;53.296;6.600;2023-02-04T12:51:58;103986.84;;;12.04;77.20
51986;BME280;38002;53.296;6.600;2023-02-04T12:57:01;103997.00;;;12.02;76.92
51986;BME280;38002;53.296;6.600;2023-02-04T13:02:01;103993.09;;;11.92;76.71
51986;BME280;38002;53.296;6.600;2023-02-04T13:07:02;103998.03;;;11.69;75.94
51986;BME280;38002;53.296;6.600;2023-02-04T13:12:03;103978.66;;;11.30;74.74
51986;BME280;38002;53.296;6.600;2023-02-04T13:17:03;103985.53;;;11.06;75.72
51986;BME280;38002;53.296;6.600;2023-02-04T13:22:03;103985.44;;;10.91;75.66
51986;BME280;38002;53.296;6.600;2023-02-04T13:27:04;103990.63;;;10.96;75.52
51986;BME280;38002;53.296;6.600;2023-02-04T13:32:04;103991.25;;;10.85;73.93
51986;BME280;38002;53.296;6.600;2023-02-04T13:37:05;103994.59;;;10.90;74.94
51986;BME280;38002;53.296;6.600;2023-02-04T13:42:05;103986.31;;;11.08;74.71
51986;BME280;38002;53.296;6.600;2023-02-04T13:47:06;103979.13;;;10.91;74.06
51986;BME280;38002;53.296;6.600;2023-02-04T13:52:06;103987.88;;;10.96;74.57
51986;BME280;38002;53.296;6.600;2023-02-04T13:57:07;103993.88;;;11.03;74.60
51986;BME280;38002;53.296;6.600;2023-02-04T14:02:07;103991.34;;;11.00;74.12
51986;BME280;38002;53.296;6.600;2023-02-04T14:07:08;103993.53;;;10.93;74.18
51986;BME280;38002;53.296;6.600;2023-02-04T14:12:08;103994.59;;;10.90;74.53
51986;BME280;38002;53.296;6.600;2023-02-04T14:17:09;103984.72;;;10.88;73.87
51986;BME280;38002;53.296;6.600;2023-02-04T14:22:09;103982.63;;;10.77;73.72
51986;BME280;38002;53.296;6.600;2023-02-04T14:27:10;103991.56;;;10.48;74.30
51986;BME280;38002;53.296;6.600;2023-02-04T14:32:10;103994.59;;;10.09;72.81
51986;BME280;38002;53.296;6.600;2023-02-04T14:37:11;104000.28;;;9.53;73.69
51986;BME280;38002;53.296;6.600;2023-02-04T14:42:12;104002.44;;;9.28;74.25
51986;BME280;38002;53.296;6.600;2023-02-04T14:47:12;103996.41;;;9.04;75.79
51986;BME280;38002;53.296;6.600;2023-02-04T14:52:12;104007.38;;;8.84;75.17
51986;BME280;38002;53.296;6.600;2023-02-04T14:57:13;104022.69;;;8.66;75.51
51986;BME280;38002;53.296;6.600;2023-02-04T15:02:14;104018.06;;;8.49;75.45
51986;BME280;38002;53.296;6.600;2023-02-04T15:07:15;104023.38;;;8.32;75.67
51986;BME280;38002;53.296;6.600;2023-02-04T15:12:15;104035.72;;;8.19;76.52
51986;BME280;38002;53.296;6.600;2023-02-04T15:17:16;104024.38;;;8.09;76.23
51986;BME280;38002;53.296;6.600;2023-02-04T15:22:17;104025.72;;;7.99;76.78
51986;BME280;38002;53.296;6.600;2023-02-04T15:27:18;104021.75;;;7.88;77.00
51986;BME280;38002;53.296;6.600;2023-02-04T15:32:18;104034.13;;;7.73;77.33
51986;BME280;38002;53.296;6.600;2023-02-04T15:37:19;104042.03;;;7.57;77.76
51986;BME280;38002;53.296;6.600;2023-02-04T15:42:19;104045.44;;;7.41;78.05
51986;BME280;38002;53.296;6.600;2023-02-04T15:47:20;104046.06;;;7.25;78.24
51986;BME280;38002;53.296;6.600;2023-02-04T15:52:20;104051.22;;;7.10;78.32
51986;BME280;38002;53.296;6.600;2023-02-04T15:57:21;104050.09;;;6.94;78.76
51986;BME280;38002;53.296;6.600;2023-02-04T16:02:21;104056.03;;;6.80;79.09
51986;BME280;38002;53.296;6.600;2023-02-04T16:07:22;104061.06;;;6.66;78.71
51986;BME280;38002;53.296;6.600;2023-02-04T16:12:22;104058.84;;;6.54;79.58
51986;BME280;38002;53.296;6.600;2023-02-04T16:17:23;104072.75;;;6.43;79.96
51986;BME280;38002;53.296;6.600;2023-02-04T16:22:23;104071.34;;;6.33;79.44
51986;BME280;38002;53.296;6.600;2023-02-04T16:27:24;104068.13;;;6.22;79.80
51986;BME280;38002;53.296;6.600;2023-02-04T16:32:26;104070.31;;;6.12;79.79
51986;BME280;38002;53.296;6.600;2023-02-04T16:37:26;104059.91;;;6.00;79.95
51986;BME280;38002;53.296;6.600;2023-02-04T16:42:27;104077.41;;;5.90;80.42
51986;BME280;38002;53.296;6.600;2023-02-04T16:47:30;104079.53;;;5.79;80.14
51986;BME280;38002;53.296;6.600;2023-02-04T16:52:31;104076.38;;;5.66;80.07
51986;BME280;38002;53.296;6.600;2023-02-04T16:57:31;104078.59;;;5.54;80.61
51986;BME280;38002;53.296;6.600;2023-02-04T17:02:32;104076.31;;;5.41;80.79
51986;BME280;38002;53.296;6.600;2023-02-04T17:07:36;104072.22;;;5.28;80.95
51986;BME280;38002;53.296;6.600;2023-02-04T17:12:36;104066.31;;;5.17;81.13
51986;BME280;38002;53.296;6.600;2023-02-04T17:17:37;104059.47;;;5.06;80.83
51986;BME280;38002;53.296;6.600;2023-02-04T17:22:37;104062.59;;;4.92;81.42
51986;BME280;38002;53.296;6.600;2023-02-04T17:27:38;104061.16;;;4.80;81.34
51986;BME280;38002;53.296;6.600;2023-02-04T17:32:38;104065.03;;;4.72;81.46
51986;BME280;38002;53.296;6.600;2023-02-04T17:37:39;104071.53;;;4.65;81.82
51986;BME280;38002;53.296;6.600;2023-02-04T17:42:40;104067.22;;;4.57;81.91
51986;BME280;38002;53.296;6.600;2023-02-04T17:47:41;104072.78;;;4.53;82.33
51986;BME280;38002;53.296;6.600;2023-02-04T17:52:41;104078.25;;;4.50;82.30
51986;BME280;38002;53.296;6.600;2023-02-04T17:57:42;104090.97;;;4.45;81.92
51986;BME280;38002;53.296;6.600;2023-02-04T18:02:44;104091.03;;;4.43;82.40
51986;BME280;38002;53.296;6.600;2023-02-04T18:13:23;104089.41;;;4.36;82.62
51986;BME280;38002;53.296;6.600;2023-02-04T18:18:31;104095.91;;;4.29;82.64
51986;BME280;38002;53.296;6.600;2023-02-04T18:23:32;104095.25;;;4.20;82.33
51986;BME280;38002;53.296;6.600;2023-02-04T18:28:33;104108.03;;;4.13;82.76
51986;BME280;38002;53.296;6.600;2023-02-04T18:33:35;104097.50;;;4.04;82.62
51986;BME280;38002;53.296;6.600;2023-02-04T18:38:38;104111.09;;;3.98;82.89
51986;BME280;38002;53.296;6.600;2023-02-04T18:43:39;104099.44;;;3.97;83.40
51986;BME280;38002;53.296;6.600;2023-02-04T18:53:49;104100.31;;;3.99;82.95
51986;BME280;38002;53.296;6.600;2023-02-04T18:58:50;104094.00;;;4.00;83.33
51986;BME280;38002;53.296;6.600;2023-02-04T19:03:57;104088.69;;;3.97;83.79
51986;BME280;38002;53.296;6.600;2023-02-04T19:19:39;104090.56;;;3.94;83.45
51986;BME280;38002;53.296;6.600;2023-02-04T19:24:42;104084.28;;;3.95;83.62
51986;BME280;38002;53.296;6.600;2023-02-04T19:29:42;104062.97;;;3.86;83.68
51986;BME280;38002;53.296;6.600;2023-02-04T19:34:43;104080.69;;;3.94;84.14
51986;BME280;38002;53.296;6.600;2023-02-04T19:39:43;104076.28;;;3.92;83.65
51986;BME280;38002;53.296;6.600;2023-02-04T19:44:44;104086.06;;;3.96;84.39
51986;BME280;38002;53.296;6.600;2023-02-04T19:49:45;104069.91;;;3.96;83.73
51986;BME280;38002;53.296;6.600;2023-02-04T19:54:46;104079.75;;;3.97;84.10
51986;BME280;38002;53.296;6.600;2023-02-04T19:59:46;104069.03;;;3.94;83.67
51986;BME280;38002;53.296;6.600;2023-02-04T20:04:48;104064.53;;;3.94;83.79
51986;BME280;38002;53.296;6.600;2023-02-04T20:10:01;104055.63;;;3.92;84.32
51986;BME280;38002;53.296;6.600;2023-02-04T20:15:20;104060.25;;;3.87;83.84
51986;BME280;38002;53.296;6.600;2023-02-04T20:20:29;104070.16;;;3.85;84.24
51986;BME280;38002;53.296;6.600;2023-02-04T20:25:43;104076.56;;;3.81;84.63
51986;BME280;38002;53.296;6.600;2023-02-04T20:30:45;104075.66;;;3.81;84.82
51986;BME280;38002;53.296;6.600;2023-02-04T20:40:52;104063.97;;;3.83;84.44
51986;BME280;38002;53.296;6.600;2023-02-04T20:45:54;104066.53;;;3.88;84.33
51986;BME280;38002;53.296;6.600;2023-02-04T20:50:56;104055.69;;;3.89;84.26
51986;BME280;38002;53.296;6.600;2023-02-04T20:55:59;104047.69;;;3.88;84.86
51986;BME280;38002;53.296;6.600;2023-02-04T21:01:25;104037.94;;;3.84;84.33
51986;BME280;38002;53.296;6.600;2023-02-04T21:06:30;104033.47;;;3.83;84.51
51986;BME280;38002;53.296;6.600;2023-02-04T21:11:34;104018.25;;;3.80;84.35
51986;BME280;38002;53.296;6.600;2023-02-04T21:16:34;104018.44;;;3.74;84.70
51986;BME280;38002;53.296;6.600;2023-02-04T21:21:35;104033.81;;;3.69;85.21
51986;BME280;38002;53.296;6.600;2023-02-04T21:26:35;104032.16;;;3.63;85.19
51986;BME280;38002;53.296;6.600;2023-02-04T21:31:36;104031.38;;;3.60;84.97
51986;BME280;38002;53.296;6.600;2023-02-04T21:36:37;104038.53;;;3.61;85.34
51986;BME280;38002;53.296;6.600;2023-02-04T21:41:37;104033.16;;;3.59;85.34
51986;BME280;38002;53.296;6.600;2023-02-04T21:46:38;104036.66;;;3.63;85.79
51986;BME280;38002;53.296;6.600;2023-02-04T21:51:38;104041.00;;;3.69;85.14
51986;BME280;38002;53.296;6.600;2023-02-04T21:56:39;104019.47;;;3.69;85.52
51986;BME280;38002;53.296;6.600;2023-02-04T22:01:39;104022.13;;;3.70;85.52
51986;BME280;38002;53.296;6.600;2023-02-04T22:06:40;104032.91;;;3.70;85.89
51986;BME280;38002;53.296;6.600;2023-02-04T22:11:40;104027.47;;;3.72;85.59
51986;BME280;38002;53.296;6.600;2023-02-04T22:16:41;104028.31;;;3.74;85.18
51986;BME280;38002;53.296;6.600;2023-02-04T22:21:41;104020.25;;;3.74;85.04
51986;BME280;38002;53.296;6.600;2023-02-04T22:26:42;104011.19;;;3.76;85.65
51986;BME280;38002;53.296;6.600;2023-02-04T22:31:42;104021.91;;;3.79;85.33
51986;BME280;38002;53.296;6.600;2023-02-04T22:36:43;104023.69;;;3.79;84.92
51986;BME280;38002;53.296;6.600;2023-02-04T22:41:43;104021.00;;;3.79;85.24
51986;BME280;38002;53.296;6.600;2023-02-04T22:46:44;104006.75;;;3.75;85.59
51986;BME280;38002;53.296;6.600;2023-02-04T22:51:44;104012.00;;;3.80;85.44
51986;BME280;38002;53.296;6.600;2023-02-04T22:56:45;104007.44;;;3.83;85.50
51986;BME280;38002;53.296;6.600;2023-02-04T23:01:45;103998.34;;;3.87;85.78
51986;BME280;38002;53.296;6.600;2023-02-04T23:06:45;103977.69;;;3.88;85.09
51986;BME280;38002;53.296;6.600;2023-02-04T23:11:46;103961.34;;;3.94;85.21
51986;BME280;38002;53.296;6.600;2023-02-04T23:16:47;103943.38;;;3.96;85.54
51986;BME280;38002;53.296;6.600;2023-02-04T23:21:48;103943.28;;;3.99;85.07
51986;BME280;38002;53.296;6.600;2023-02-04T23:26:48;103933.28;;;4.02;85.70
51986;BME280;38002;53.296;6.600;2023-02-04T23:31:49;103943.13;;;4.03;85.20
51986;BME280;38002;53.296;6.600;2023-02-04T23:36:49;103928.78;;;4.03;85.06
51986;BME280;38002;53.296;6.600;2023-02-04T23:41:50;103918.03;;;4.03;85.67
51986;BME280;38002;53.296;6.600;2023-02-04T23:46:51;103903.63;;;4.04;84.98
51986;BME280;38002;53.296;6.600;2023-02-04T23:51:51;103890.19;;;4.04;85.59
51986;BME280;38002;53.296;6.600;2023-02-04T23:56:51;103882.97;;;4.04;85.75
